sensor_id;sensor_type;location;lat;lon;timestamp;temperature;humidity
67641;SHT31;54434;50.096;20.082;2024-03-02T00:00:04;6.99;80.65
67641;SHT31;54434;50.096;20.082;2024-03-02T00:03:21;6.95;80.56
67641;SHT31;54434;50.096;20.082;2024-03-02T00:06:15;6.93;80.68
67641;SHT31;54434;50.096;20.082;2024-03-02T00:09:13;6.88;80.73
67641;SHT31;54434;50.096;20.082;2024-03-02T00:12:10;6.85;80.95
67641;SHT31;54434;50.096;20.082;2024-03-02T00:15:19;6.83;81.16
67641;SHT31;54434;50.096;20.082;2024-03-02T00:18:34;6.83;81.35
67641;SHT31;54434;50.096;20.082;2024-03-02T00:21:28;6.82;81.32
67641;SHT31;54434;50.096;20.082;2024-03-02T00:24:25;6.82;81.30
67641;SHT31;54434;50.096;20.082;2024-03-02T00:27:24;6.79;81.24
67641;SHT31;54434;50.096;20.082;2024-03-02T00:33:48;6.75;81.21
67641;SHT31;54434;50.096;20.082;2024-03-02T00:36:43;6.74;81.30
67641;SHT31;54434;50.096;20.082;2024-03-02T00:39:38;6.73;81.47
67641;SHT31;54434;50.096;20.082;2024-03-02T00:42:32;6.74;81.44
67641;SHT31;54434;50.096;20.082;2024-03-02T00:45:25;6.74;81.42
67641;SHT31;54434;50.096;20.082;2024-03-02T00:48:20;6.75;81.40
67641;SHT31;54434;50.096;20.082;2024-03-02T00:51:14;6.74;81.43
67641;SHT31;54434;50.096;20.082;2024-03-02T00:54:08;6.73;81.50
67641;SHT31;54434;50.096;20.082;2024-03-02T00:57:04;6.71;81.59
67641;SHT31;54434;50.096;20.082;2024-03-02T01:00:03;6.72;81.74
67641;SHT31;54434;50.096;20.082;2024-03-02T01:03:00;6.74;81.70
67641;SHT31;54434;50.096;20.082;2024-03-02T01:05:56;6.75;81.72
67641;SHT31;54434;50.096;20.082;2024-03-02T01:08:51;6.75;81.74
67641;SHT31;54434;50.096;20.082;2024-03-02T01:11:45;6.76;81.66
67641;SHT31;54434;50.096;20.082;2024-03-02T01:14:40;6.75;81.65
67641;SHT31;54434;50.096;20.082;2024-03-02T01:17:34;6.74;81.68
67641;SHT31;54434;50.096;20.082;2024-03-02T01:20:28;6.74;81.71
67641;SHT31;54434;50.096;20.082;2024-03-02T01:23:21;6.75;81.70
67641;SHT31;54434;50.096;20.082;2024-03-02T01:26:16;6.76;81.70
67641;SHT31;54434;50.096;20.082;2024-03-02T01:29:10;6.77;81.74
67641;SHT31;54434;50.096;20.082;2024-03-02T01:32:04;6.79;81.72
67641;SHT31;54434;50.096;20.082;2024-03-02T01:34:58;6.79;81.62
67641;SHT31;54434;50.096;20.082;2024-03-02T01:37:52;6.80;81.69
67641;SHT31;54434;50.096;20.082;2024-03-02T01:40:46;6.81;81.69
67641;SHT31;54434;50.096;20.082;2024-03-02T01:43:40;6.83;81.69
67641;SHT31;54434;50.096;20.082;2024-03-02T01:46:34;6.84;81.70
67641;SHT31;54434;50.096;20.082;2024-03-02T01:49:28;6.86;81.60
67641;SHT31;54434;50.096;20.082;2024-03-02T01:52:22;6.86;81.61
67641;SHT31;54434;50.096;20.082;2024-03-02T01:55:16;6.88;81.62
67641;SHT31;54434;50.096;20.082;2024-03-02T01:58:10;6.90;81.59
67641;SHT31;54434;50.096;20.082;2024-03-02T02:01:04;6.92;81.56
67641;SHT31;54434;50.096;20.082;2024-03-02T02:03:59;6.96;81.58
67641;SHT31;54434;50.096;20.082;2024-03-02T02:06:55;7.00;81.45
67641;SHT31;54434;50.096;20.082;2024-03-02T02:09:51;7.03;81.35
67641;SHT31;54434;50.096;20.082;2024-03-02T02:12:44;7.05;81.27
67641;SHT31;54434;50.096;20.082;2024-03-02T02:15:38;7.06;81.19
67641;SHT31;54434;50.096;20.082;2024-03-02T02:18:33;7.08;81.08
67641;SHT31;54434;50.096;20.082;2024-03-02T02:21:27;7.08;81.01
67641;SHT31;54434;50.096;20.082;2024-03-02T02:24:21;7.05;80.96
67641;SHT31;54434;50.096;20.082;2024-03-02T02:27:15;7.03;80.91
67641;SHT31;54434;50.096;20.082;2024-03-02T02:30:10;7.00;80.93
67641;SHT31;54434;50.096;20.082;2024-03-02T02:33:08;6.97;80.92
67641;SHT31;54434;50.096;20.082;2024-03-02T02:36:02;6.93;80.97
67641;SHT31;54434;50.096;20.082;2024-03-02T02:38:57;6.90;81.03
67641;SHT31;54434;50.096;20.082;2024-03-02T02:41:53;6.86;81.03
67641;SHT31;54434;50.096;20.082;2024-03-02T02:44:47;6.84;81.05
67641;SHT31;54434;50.096;20.082;2024-03-02T02:47:41;6.81;81.04
67641;SHT31;54434;50.096;20.082;2024-03-02T02:50:35;6.77;81.11
67641;SHT31;54434;50.096;20.082;2024-03-02T02:53:29;6.73;81.18
67641;SHT31;54434;50.096;20.082;2024-03-02T02:56:24;6.71;81.29
67641;SHT31;54434;50.096;20.082;2024-03-02T02:59:18;6.70;81.30
67641;SHT31;54434;50.096;20.082;2024-03-02T03:02:12;6.66;81.20
67641;SHT31;54434;50.096;20.082;2024-03-02T03:05:06;6.63;81.29
67641;SHT31;54434;50.096;20.082;2024-03-02T03:08:00;6.59;81.31
67641;SHT31;54434;50.096;20.082;2024-03-02T03:10:55;6.59;81.33
67641;SHT31;54434;50.096;20.082;2024-03-02T03:13:49;6.58;81.31
67641;SHT31;54434;50.096;20.082;2024-03-02T03:16:44;6.56;81.43
67641;SHT31;54434;50.096;20.082;2024-03-02T03:19:39;6.56;81.50
67641;SHT31;54434;50.096;20.082;2024-03-02T03:22:33;6.55;81.51
67641;SHT31;54434;50.096;20.082;2024-03-02T03:25:26;6.52;81.58
67641;SHT31;54434;50.096;20.082;2024-03-02T03:28:23;6.53;81.69
67641;SHT31;54434;50.096;20.082;2024-03-02T03:31:17;6.51;81.69
67641;SHT31;54434;50.096;20.082;2024-03-02T03:34:11;6.50;81.65
67641;SHT31;54434;50.096;20.082;2024-03-02T03:37:05;6.45;81.64
67641;SHT31;54434;50.096;20.082;2024-03-02T03:39:58;6.45;81.86
67641;SHT31;54434;50.096;20.082;2024-03-02T03:42:56;6.42;81.87
67641;SHT31;54434;50.096;20.082;2024-03-02T03:45:50;6.41;81.90
67641;SHT31;54434;50.096;20.082;2024-03-02T03:48:44;6.42;81.90
67641;SHT31;54434;50.096;20.082;2024-03-02T03:51:38;6.43;81.97
67641;SHT31;54434;50.096;20.082;2024-03-02T03:54:32;6.43;81.90
67641;SHT31;54434;50.096;20.082;2024-03-02T03:57:27;6.42;81.87
67641;SHT31;54434;50.096;20.082;2024-03-02T04:00:21;6.41;81.92
67641;SHT31;54434;50.096;20.082;2024-03-02T04:03:15;6.41;81.93
67641;SHT31;54434;50.096;20.082;2024-03-02T04:06:09;6.39;81.90
67641;SHT31;54434;50.096;20.082;2024-03-02T04:09:05;6.38;81.94
67641;SHT31;54434;50.096;20.082;2024-03-02T04:11:59;6.39;82.03
67641;SHT31;54434;50.096;20.082;2024-03-02T04:14:53;6.39;82.05
67641;SHT31;54434;50.096;20.082;2024-03-02T04:17:46;6.39;82.07
67641;SHT31;54434;50.096;20.082;2024-03-02T04:20:40;6.40;82.10
67641;SHT31;54434;50.096;20.082;2024-03-02T04:23:34;6.41;82.14
67641;SHT31;54434;50.096;20.082;2024-03-02T04:26:28;6.41;82.20
67641;SHT31;54434;50.096;20.082;2024-03-02T04:29:22;6.41;82.25
67641;SHT31;54434;50.096;20.082;2024-03-02T04:32:16;6.42;82.30
67641;SHT31;54434;50.096;20.082;2024-03-02T04:35:10;6.43;82.30
67641;SHT31;54434;50.096;20.082;2024-03-02T04:38:04;6.45;82.25
67641;SHT31;54434;50.096;20.082;2024-03-02T04:40:58;6.44;82.20
67641;SHT31;54434;50.096;20.082;2024-03-02T04:43:52;6.44;82.22
67641;SHT31;54434;50.096;20.082;2024-03-02T04:46:46;6.45;82.20
67641;SHT31;54434;50.096;20.082;2024-03-02T04:49:40;6.45;82.20
67641;SHT31;54434;50.096;20.082;2024-03-02T04:52:36;6.45;82.16
67641;SHT31;54434;50.096;20.082;2024-03-02T04:55:30;6.43;82.18
67641;SHT31;54434;50.096;20.082;2024-03-02T04:58:53;6.43;82.26
67641;SHT31;54434;50.096;20.082;2024-03-02T05:01:46;6.43;82.21
67641;SHT31;54434;50.096;20.082;2024-03-02T05:04:40;6.45;82.20
67641;SHT31;54434;50.096;20.082;2024-03-02T05:07:37;6.45;82.27
67641;SHT31;54434;50.096;20.082;2024-03-02T05:10:33;6.47;82.27
67641;SHT31;54434;50.096;20.082;2024-03-02T05:13:27;6.48;82.20
67641;SHT31;54434;50.096;20.082;2024-03-02T05:16:20;6.49;82.20
67641;SHT31;54434;50.096;20.082;2024-03-02T05:19:14;6.53;82.26
67641;SHT31;54434;50.096;20.082;2024-03-02T05:22:08;6.56;82.21
67641;SHT31;54434;50.096;20.082;2024-03-02T05:25:02;6.60;82.14
67641;SHT31;54434;50.096;20.082;2024-03-02T05:27:58;6.61;82.10
67641;SHT31;54434;50.096;20.082;2024-03-02T05:30:52;6.64;82.10
67641;SHT31;54434;50.096;20.082;2024-03-02T05:33:46;6.66;82.05
67641;SHT31;54434;50.096;20.082;2024-03-02T05:36:46;6.70;82.02
67641;SHT31;54434;50.096;20.082;2024-03-02T05:39:39;6.73;81.99
67641;SHT31;54434;50.096;20.082;2024-03-02T05:42:33;6.76;81.91
67641;SHT31;54434;50.096;20.082;2024-03-02T05:45:27;6.77;81.91
67641;SHT31;54434;50.096;20.082;2024-03-02T05:48:21;6.82;81.86
67641;SHT31;54434;50.096;20.082;2024-03-02T05:51:15;6.86;81.76
67641;SHT31;54434;50.096;20.082;2024-03-02T05:54:09;6.88;81.69
67641;SHT31;54434;50.096;20.082;2024-03-02T05:57:03;6.89;81.65
67641;SHT31;54434;50.096;20.082;2024-03-02T06:00:21;6.90;81.71
67641;SHT31;54434;50.096;20.082;2024-03-02T06:03:15;6.89;81.81
67641;SHT31;54434;50.096;20.082;2024-03-02T06:06:09;6.89;81.90
67641;SHT31;54434;50.096;20.082;2024-03-02T06:09:03;6.89;81.91
67641;SHT31;54434;50.096;20.082;2024-03-02T06:11:57;6.88;81.97
67641;SHT31;54434;50.096;20.082;2024-03-02T06:14:53;6.91;82.00
67641;SHT31;54434;50.096;20.082;2024-03-02T06:17:47;6.95;82.04
67641;SHT31;54434;50.096;20.082;2024-03-02T06:20:41;6.96;81.90
67641;SHT31;54434;50.096;20.082;2024-03-02T06:23:34;6.97;81.81
67641;SHT31;54434;50.096;20.082;2024-03-02T06:26:28;7.00;81.82
67641;SHT31;54434;50.096;20.082;2024-03-02T06:29:22;7.02;81.70
67641;SHT31;54434;50.096;20.082;2024-03-02T06:32:15;7.03;81.72
67641;SHT31;54434;50.096;20.082;2024-03-02T06:35:09;7.08;81.82
67641;SHT31;54434;50.096;20.082;2024-03-02T06:38:04;7.14;81.76
67641;SHT31;54434;50.096;20.082;2024-03-02T06:40:57;7.17;81.56
67641;SHT31;54434;50.096;20.082;2024-03-02T06:43:51;7.22;81.46
67641;SHT31;54434;50.096;20.082;2024-03-02T06:46:49;7.27;81.33
67641;SHT31;54434;50.096;20.082;2024-03-02T06:49:43;7.32;81.47
67641;SHT31;54434;50.096;20.082;2024-03-02T06:52:36;7.39;81.43
67641;SHT31;54434;50.096;20.082;2024-03-02T06:55:30;7.45;81.32
67641;SHT31;54434;50.096;20.082;2024-03-02T06:58:24;7.50;81.23
67641;SHT31;54434;50.096;20.082;2024-03-02T07:01:17;7.52;81.13
67641;SHT31;54434;50.096;20.082;2024-03-02T07:04:14;7.60;81.14
67641;SHT31;54434;50.096;20.082;2024-03-02T07:07:07;7.66;81.10
67641;SHT31;54434;50.096;20.082;2024-03-02T07:10:02;7.71;81.04
67641;SHT31;54434;50.096;20.082;2024-03-02T07:12:57;7.76;80.99
67641;SHT31;54434;50.096;20.082;2024-03-02T07:15:52;7.77;80.80
67641;SHT31;54434;50.096;20.082;2024-03-02T07:19:12;7.80;80.79
67641;SHT31;54434;50.096;20.082;2024-03-02T07:22:07;7.84;80.84
67641;SHT31;54434;50.096;20.082;2024-03-02T07:25:01;7.88;80.71
67641;SHT31;54434;50.096;20.082;2024-03-02T07:28:17;7.93;80.67
67641;SHT31;54434;50.096;20.082;2024-03-02T07:31:11;7.98;80.66
67641;SHT31;54434;50.096;20.082;2024-03-02T07:34:07;8.04;80.63
67641;SHT31;54434;50.096;20.082;2024-03-02T07:37:02;8.10;80.58
67641;SHT31;54434;50.096;20.082;2024-03-02T07:39:56;8.19;80.61
67641;SHT31;54434;50.096;20.082;2024-03-02T07:42:50;8.28;80.62
67641;SHT31;54434;50.096;20.082;2024-03-02T07:45:46;8.36;80.63
67641;SHT31;54434;50.096;20.082;2024-03-02T07:48:40;8.44;80.34
67641;SHT31;54434;50.096;20.082;2024-03-02T07:51:36;8.52;80.47
67641;SHT31;54434;50.096;20.082;2024-03-02T07:54:33;8.64;80.32
67641;SHT31;54434;50.096;20.082;2024-03-02T07:57:27;8.72;79.88
67641;SHT31;54434;50.096;20.082;2024-03-02T08:00:21;8.79;79.62
67641;SHT31;54434;50.096;20.082;2024-03-02T08:03:16;8.87;79.54
67641;SHT31;54434;50.096;20.082;2024-03-02T08:06:10;8.94;79.32
67641;SHT31;54434;50.096;20.082;2024-03-02T08:09:04;9.04;79.32
67641;SHT31;54434;50.096;20.082;2024-03-02T08:11:59;9.11;78.77
67641;SHT31;54434;50.096;20.082;2024-03-02T08:14:53;9.11;78.43
67641;SHT31;54434;50.096;20.082;2024-03-02T08:17:47;9.14;78.51
67641;SHT31;54434;50.096;20.082;2024-03-02T08:20:41;9.18;78.45
67641;SHT31;54434;50.096;20.082;2024-03-02T08:23:35;9.20;78.29
67641;SHT31;54434;50.096;20.082;2024-03-02T08:26:32;9.26;78.19
67641;SHT31;54434;50.096;20.082;2024-03-02T08:29:27;9.33;78.10
67641;SHT31;54434;50.096;20.082;2024-03-02T08:32:21;9.37;77.91
67641;SHT31;54434;50.096;20.082;2024-03-02T08:35:14;9.38;77.79
67641;SHT31;54434;50.096;20.082;2024-03-02T08:38:08;9.40;77.77
67641;SHT31;54434;50.096;20.082;2024-03-02T08:41:03;9.43;77.90
67641;SHT31;54434;50.096;20.082;2024-03-02T08:43:58;9.50;77.85
67641;SHT31;54434;50.096;20.082;2024-03-02T08:46:52;9.56;77.44
67641;SHT31;54434;50.096;20.082;2024-03-02T08:49:49;9.60;77.30
67641;SHT31;54434;50.096;20.082;2024-03-02T08:52:45;9.62;76.89
67641;SHT31;54434;50.096;20.082;2024-03-02T08:55:39;9.67;76.85
67641;SHT31;54434;50.096;20.082;2024-03-02T08:58:33;9.71;76.82
67641;SHT31;54434;50.096;20.082;2024-03-02T09:01:27;9.76;76.82
67641;SHT31;54434;50.096;20.082;2024-03-02T09:04:22;9.78;76.62
67641;SHT31;54434;50.096;20.082;2024-03-02T09:07:18;9.80;76.57
67641;SHT31;54434;50.096;20.082;2024-03-02T09:10:11;9.80;76.60
67641;SHT31;54434;50.096;20.082;2024-03-02T09:13:05;9.77;76.51
67641;SHT31;54434;50.096;20.082;2024-03-02T09:16:00;9.74;76.02
67641;SHT31;54434;50.096;20.082;2024-03-02T09:18:54;9.74;76.19
67641;SHT31;54434;50.096;20.082;2024-03-02T09:21:48;9.76;76.26
67641;SHT31;54434;50.096;20.082;2024-03-02T09:24:41;9.78;76.43
67641;SHT31;54434;50.096;20.082;2024-03-02T09:27:37;9.79;76.15
67641;SHT31;54434;50.096;20.082;2024-03-02T09:30:31;9.77;75.92
67641;SHT31;54434;50.096;20.082;2024-03-02T09:33:24;9.78;76.02
67641;SHT31;54434;50.096;20.082;2024-03-02T09:36:18;9.81;75.98
67641;SHT31;54434;50.096;20.082;2024-03-02T09:39:13;9.80;76.08
67641;SHT31;54434;50.096;20.082;2024-03-02T09:42:07;9.77;75.97
67641;SHT31;54434;50.096;20.082;2024-03-02T09:45:01;9.76;76.15
67641;SHT31;54434;50.096;20.082;2024-03-02T09:47:57;9.76;76.17
67641;SHT31;54434;50.096;20.082;2024-03-02T09:50:51;9.75;76.07
67641;SHT31;54434;50.096;20.082;2024-03-02T09:53:45;9.73;76.30
67641;SHT31;54434;50.096;20.082;2024-03-02T09:56:44;9.74;76.18
67641;SHT31;54434;50.096;20.082;2024-03-02T09:59:38;9.74;76.26
67641;SHT31;54434;50.096;20.082;2024-03-02T10:02:31;9.77;76.33
67641;SHT31;54434;50.096;20.082;2024-03-02T10:05:26;9.84;76.52
67641;SHT31;54434;50.096;20.082;2024-03-02T10:08:19;9.92;76.59
67641;SHT31;54434;50.096;20.082;2024-03-02T10:11:16;9.98;76.60
67641;SHT31;54434;50.096;20.082;2024-03-02T10:14:22;10.08;76.70
67641;SHT31;54434;50.096;20.082;2024-03-02T10:17:16;10.19;76.70
67641;SHT31;54434;50.096;20.082;2024-03-02T10:20:27;10.24;76.11
67641;SHT31;54434;50.096;20.082;2024-03-02T10:23:22;10.31;76.26
67641;SHT31;54434;50.096;20.082;2024-03-02T10:26:18;10.42;75.85
67641;SHT31;54434;50.096;20.082;2024-03-02T10:29:12;10.55;75.51
67641;SHT31;54434;50.096;20.082;2024-03-02T10:32:08;10.64;75.07
67641;SHT31;54434;50.096;20.082;2024-03-02T10:35:03;10.69;74.81
67641;SHT31;54434;50.096;20.082;2024-03-02T10:37:58;10.76;74.68
67641;SHT31;54434;50.096;20.082;2024-03-02T10:40:53;10.86;74.56
67641;SHT31;54434;50.096;20.082;2024-03-02T10:43:49;10.94;74.38
67641;SHT31;54434;50.096;20.082;2024-03-02T10:46:49;11.05;74.13
67641;SHT31;54434;50.096;20.082;2024-03-02T10:49:45;11.16;74.10
67641;SHT31;54434;50.096;20.082;2024-03-02T10:52:42;11.20;73.79
67641;SHT31;54434;50.096;20.082;2024-03-02T10:55:37;11.28;73.66
67641;SHT31;54434;50.096;20.082;2024-03-02T10:58:32;11.38;73.56
67641;SHT31;54434;50.096;20.082;2024-03-02T11:01:31;11.51;73.48
67641;SHT31;54434;50.096;20.082;2024-03-02T11:04:29;11.62;73.00
67641;SHT31;54434;50.096;20.082;2024-03-02T11:07:25;11.73;72.69
67641;SHT31;54434;50.096;20.082;2024-03-02T11:10:20;11.79;72.34
67641;SHT31;54434;50.096;20.082;2024-03-02T11:13:16;11.88;72.13
67641;SHT31;54434;50.096;20.082;2024-03-02T11:16:21;11.95;71.67
67641;SHT31;54434;50.096;20.082;2024-03-02T11:19:24;11.96;71.18
67641;SHT31;54434;50.096;20.082;2024-03-02T11:22:19;11.98;71.56
67641;SHT31;54434;50.096;20.082;2024-03-02T11:25:24;12.02;71.58
67641;SHT31;54434;50.096;20.082;2024-03-02T11:28:18;12.01;71.34
67641;SHT31;54434;50.096;20.082;2024-03-02T11:35:06;11.84;71.57
67641;SHT31;54434;50.096;20.082;2024-03-02T11:37:59;11.86;71.81
67641;SHT31;54434;50.096;20.082;2024-03-02T11:40:57;11.88;71.71
67641;SHT31;54434;50.096;20.082;2024-03-02T11:43:52;11.89;71.39
67641;SHT31;54434;50.096;20.082;2024-03-02T11:46:46;11.95;71.69
67641;SHT31;54434;50.096;20.082;2024-03-02T11:49:48;12.04;71.12
67641;SHT31;54434;50.096;20.082;2024-03-02T11:52:41;12.10;71.07
67641;SHT31;54434;50.096;20.082;2024-03-02T11:55:36;12.25;71.17
67641;SHT31;54434;50.096;20.082;2024-03-02T11:58:35;12.36;70.62
67641;SHT31;54434;50.096;20.082;2024-03-02T12:01:32;12.43;70.57
67641;SHT31;54434;50.096;20.082;2024-03-02T12:04:28;12.51;70.06
67641;SHT31;54434;50.096;20.082;2024-03-02T12:07:23;12.59;70.18
67641;SHT31;54434;50.096;20.082;2024-03-02T12:10:17;12.67;69.82
67641;SHT31;54434;50.096;20.082;2024-03-02T12:13:11;12.70;69.43
67641;SHT31;54434;50.096;20.082;2024-03-02T12:16:05;12.74;69.52
67641;SHT31;54434;50.096;20.082;2024-03-02T12:18:59;12.86;69.43
67641;SHT31;54434;50.096;20.082;2024-03-02T12:21:53;12.98;69.51
67641;SHT31;54434;50.096;20.082;2024-03-02T12:24:47;13.04;69.04
67641;SHT31;54434;50.096;20.082;2024-03-02T12:27:41;13.01;68.98
67641;SHT31;54434;50.096;20.082;2024-03-02T12:30:36;13.09;69.17
67641;SHT31;54434;50.096;20.082;2024-03-02T12:33:31;13.27;69.24
67641;SHT31;54434;50.096;20.082;2024-03-02T12:36:24;13.45;68.67
67641;SHT31;54434;50.096;20.082;2024-03-02T12:39:18;13.55;68.61
67641;SHT31;54434;50.096;20.082;2024-03-02T12:42:12;13.82;67.89
67641;SHT31;54434;50.096;20.082;2024-03-02T12:45:06;13.92;67.07
67641;SHT31;54434;50.096;20.082;2024-03-02T12:48:02;13.94;66.77
67641;SHT31;54434;50.096;20.082;2024-03-02T12:50:58;14.05;67.09
67641;SHT31;54434;50.096;20.082;2024-03-02T12:53:54;14.17;66.69
67641;SHT31;54434;50.096;20.082;2024-03-02T12:56:49;14.32;66.25
67641;SHT31;54434;50.096;20.082;2024-03-02T12:59:46;14.38;65.69
67641;SHT31;54434;50.096;20.082;2024-03-02T13:02:41;14.38;65.74
67641;SHT31;54434;50.096;20.082;2024-03-02T13:05:35;14.44;65.78
67641;SHT31;54434;50.096;20.082;2024-03-02T13:08:31;14.48;65.35
67641;SHT31;54434;50.096;20.082;2024-03-02T13:11:25;14.57;65.65
67641;SHT31;54434;50.096;20.082;2024-03-02T13:14:21;14.59;65.41
67641;SHT31;54434;50.096;20.082;2024-03-02T13:17:16;14.54;65.19
67641;SHT31;54434;50.096;20.082;2024-03-02T13:20:11;14.57;65.46
67641;SHT31;54434;50.096;20.082;2024-03-02T13:23:08;14.51;65.06
67641;SHT31;54434;50.096;20.082;2024-03-02T13:26:03;14.46;65.50
67641;SHT31;54434;50.096;20.082;2024-03-02T13:28:59;14.31;65.44
67641;SHT31;54434;50.096;20.082;2024-03-02T13:31:53;14.21;65.52
67641;SHT31;54434;50.096;20.082;2024-03-02T13:34:47;14.16;65.85
67641;SHT31;54434;50.096;20.082;2024-03-02T13:37:41;14.16;66.06
67641;SHT31;54434;50.096;20.082;2024-03-02T13:40:35;14.18;66.07
67641;SHT31;54434;50.096;20.082;2024-03-02T13:43:31;14.15;66.14
67641;SHT31;54434;50.096;20.082;2024-03-02T13:46:28;14.11;66.01
67641;SHT31;54434;50.096;20.082;2024-03-02T13:49:22;14.06;65.98
67641;SHT31;54434;50.096;20.082;2024-03-02T13:52:30;13.99;65.88
67641;SHT31;54434;50.096;20.082;2024-03-02T13:55:56;13.95;66.04
67641;SHT31;54434;50.096;20.082;2024-03-02T13:58:50;13.96;66.38
67641;SHT31;54434;50.096;20.082;2024-03-02T14:01:47;13.96;66.33
67641;SHT31;54434;50.096;20.082;2024-03-02T14:04:41;13.91;66.30
67641;SHT31;54434;50.096;20.082;2024-03-02T14:07:36;13.91;66.60
67641;SHT31;54434;50.096;20.082;2024-03-02T14:10:39;13.94;66.06
67641;SHT31;54434;50.096;20.082;2024-03-02T14:13:33;13.97;66.32
67641;SHT31;54434;50.096;20.082;2024-03-02T14:16:26;14.02;67.16
67641;SHT31;54434;50.096;20.082;2024-03-02T14:19:20;14.02;67.33
67641;SHT31;54434;50.096;20.082;2024-03-02T14:22:15;14.00;67.41
67641;SHT31;54434;50.096;20.082;2024-03-02T14:25:09;13.97;67.24
67641;SHT31;54434;50.096;20.082;2024-03-02T14:28:03;13.98;67.44
67641;SHT31;54434;50.096;20.082;2024-03-02T14:31:17;14.00;67.77
67641;SHT31;54434;50.096;20.082;2024-03-02T14:34:11;14.01;67.63
67641;SHT31;54434;50.096;20.082;2024-03-02T14:37:05;14.02;67.55
67641;SHT31;54434;50.096;20.082;2024-03-02T14:39:59;13.98;67.22
67641;SHT31;54434;50.096;20.082;2024-03-02T14:42:55;13.91;67.29
67641;SHT31;54434;50.096;20.082;2024-03-02T14:45:49;13.89;67.48
67641;SHT31;54434;50.096;20.082;2024-03-02T14:48:43;13.92;67.66
67641;SHT31;54434;50.096;20.082;2024-03-02T14:51:37;13.89;67.60
67641;SHT31;54434;50.096;20.082;2024-03-02T14:54:31;13.84;67.71
67641;SHT31;54434;50.096;20.082;2024-03-02T14:57:25;13.79;67.85
67641;SHT31;54434;50.096;20.082;2024-03-02T15:00:19;13.76;68.03
67641;SHT31;54434;50.096;20.082;2024-03-02T15:03:13;13.76;68.24
67641;SHT31;54434;50.096;20.082;2024-03-02T15:06:08;13.69;68.41
67641;SHT31;54434;50.096;20.082;2024-03-02T15:09:01;13.65;68.66
67641;SHT31;54434;50.096;20.082;2024-03-02T15:11:55;13.56;68.95
67641;SHT31;54434;50.096;20.082;2024-03-02T15:14:49;13.47;69.17
67641;SHT31;54434;50.096;20.082;2024-03-02T15:17:44;13.36;69.17
67641;SHT31;54434;50.096;20.082;2024-03-02T15:20:37;13.29;69.40
67641;SHT31;54434;50.096;20.082;2024-03-02T15:23:32;13.21;69.59
67641;SHT31;54434;50.096;20.082;2024-03-02T15:26:26;13.13;69.65
67641;SHT31;54434;50.096;20.082;2024-03-02T15:29:20;13.04;69.80
67641;SHT31;54434;50.096;20.082;2024-03-02T15:32:18;12.97;70.00
67641;SHT31;54434;50.096;20.082;2024-03-02T15:35:13;12.90;70.16
67641;SHT31;54434;50.096;20.082;2024-03-02T15:38:06;12.83;70.47
67641;SHT31;54434;50.096;20.082;2024-03-02T15:41:20;12.73;70.83
67641;SHT31;54434;50.096;20.082;2024-03-02T15:44:14;12.64;70.97
67641;SHT31;54434;50.096;20.082;2024-03-02T15:47:08;12.59;71.05
67641;SHT31;54434;50.096;20.082;2024-03-02T15:50:02;12.52;71.26
67641;SHT31;54434;50.096;20.082;2024-03-02T15:52:56;12.48;71.65
67641;SHT31;54434;50.096;20.082;2024-03-02T15:55:53;12.42;71.72
67641;SHT31;54434;50.096;20.082;2024-03-02T15:58:47;12.34;71.80
67641;SHT31;54434;50.096;20.082;2024-03-02T16:01:40;12.28;71.91
67641;SHT31;54434;50.096;20.082;2024-03-02T16:04:34;12.22;72.18
67641;SHT31;54434;50.096;20.082;2024-03-02T16:07:28;12.16;72.54
67641;SHT31;54434;50.096;20.082;2024-03-02T16:10:23;12.12;72.56
67641;SHT31;54434;50.096;20.082;2024-03-02T16:13:17;12.09;72.56
67641;SHT31;54434;50.096;20.082;2024-03-02T16:16:11;12.03;72.41
67641;SHT31;54434;50.096;20.082;2024-03-02T16:19:05;11.97;72.56
67641;SHT31;54434;50.096;20.082;2024-03-02T16:22:13;11.90;72.46
67641;SHT31;54434;50.096;20.082;2024-03-02T16:25:08;11.93;73.33
67641;SHT31;54434;50.096;20.082;2024-03-02T16:28:01;11.99;73.31
67641;SHT31;54434;50.096;20.082;2024-03-02T16:30:56;11.95;73.04
67641;SHT31;54434;50.096;20.082;2024-03-02T16:33:50;11.83;73.09
67641;SHT31;54434;50.096;20.082;2024-03-02T16:36:44;11.76;73.35
67641;SHT31;54434;50.096;20.082;2024-03-02T16:39:37;11.65;73.56
67641;SHT31;54434;50.096;20.082;2024-03-02T16:42:34;11.56;73.86
67641;SHT31;54434;50.096;20.082;2024-03-02T16:45:28;11.49;73.88
67641;SHT31;54434;50.096;20.082;2024-03-02T16:48:22;11.43;73.98
67641;SHT31;54434;50.096;20.082;2024-03-02T16:51:15;11.36;74.22
67641;SHT31;54434;50.096;20.082;2024-03-02T16:54:09;11.27;74.22
67641;SHT31;54434;50.096;20.082;2024-03-02T16:57:04;11.21;74.52
67641;SHT31;54434;50.096;20.082;2024-03-02T16:59:58;11.14;74.46
67641;SHT31;54434;50.096;20.082;2024-03-02T17:02:52;11.06;74.61
67641;SHT31;54434;50.096;20.082;2024-03-02T17:05:48;11.03;75.25
67641;SHT31;54434;50.096;20.082;2024-03-02T17:08:44;11.07;75.10
67641;SHT31;54434;50.096;20.082;2024-03-02T17:11:37;11.08;74.51
67641;SHT31;54434;50.096;20.082;2024-03-02T17:14:32;11.02;74.32
67641;SHT31;54434;50.096;20.082;2024-03-02T17:17:26;10.95;74.35
67641;SHT31;54434;50.096;20.082;2024-03-02T17:20:27;10.88;74.38
67641;SHT31;54434;50.096;20.082;2024-03-02T17:23:27;10.84;74.34
67641;SHT31;54434;50.096;20.082;2024-03-02T17:26:22;10.82;74.33
67641;SHT31;54434;50.096;20.082;2024-03-02T17:29:16;10.77;74.37
67641;SHT31;54434;50.096;20.082;2024-03-02T17:32:11;10.73;74.46
67641;SHT31;54434;50.096;20.082;2024-03-02T17:35:05;10.70;74.54
67641;SHT31;54434;50.096;20.082;2024-03-02T17:38:00;10.67;74.67
67641;SHT31;54434;50.096;20.082;2024-03-02T17:40:54;10.62;74.77
67641;SHT31;54434;50.096;20.082;2024-03-02T17:43:48;10.59;74.87
67641;SHT31;54434;50.096;20.082;2024-03-02T17:46:42;10.56;74.97
67641;SHT31;54434;50.096;20.082;2024-03-02T17:49:36;10.52;75.06
67641;SHT31;54434;50.096;20.082;2024-03-02T17:52:33;10.49;75.17
67641;SHT31;54434;50.096;20.082;2024-03-02T17:55:44;10.45;75.20
67641;SHT31;54434;50.096;20.082;2024-03-02T17:58:37;10.41;75.28
67641;SHT31;54434;50.096;20.082;2024-03-02T18:01:31;10.37;75.30
67641;SHT31;54434;50.096;20.082;2024-03-02T18:04:25;10.32;75.36
67641;SHT31;54434;50.096;20.082;2024-03-02T18:07:19;10.26;75.46
67641;SHT31;54434;50.096;20.082;2024-03-02T18:10:13;10.21;75.59
67641;SHT31;54434;50.096;20.082;2024-03-02T18:13:06;10.16;75.69
67641;SHT31;54434;50.096;20.082;2024-03-02T18:16:00;10.12;75.68
67641;SHT31;54434;50.096;20.082;2024-03-02T18:18:56;10.09;75.70
67641;SHT31;54434;50.096;20.082;2024-03-02T18:21:54;10.01;75.82
67641;SHT31;54434;50.096;20.082;2024-03-02T18:24:48;9.99;75.89
67641;SHT31;54434;50.096;20.082;2024-03-02T18:27:44;9.96;75.90